Time;durP1;ratioP1;P1;durP2;ratioP2;P2;SDS_P1;SDS_P2;PMS_P1;PMS_P2;Temp;Humidity;BMP_temperature;BMP_pressure;BME280_temperature;BME280_humidity;BME280_pressure;Samples;Min_cycle;Max_cycle;Signal;HPM_P1;HPM_P2
2021/11/17 02:28:19;;;;;;;40.83;14.27;;;3.50;98.30;;;;;;4958885;28;20034;-73
2021/11/17 02:31:23;;;;;;;39.05;13.57;;;3.50;98.40;;;;;;4959018;28;20499;-73
2021/11/17 02:34:12;;;;;;;34.90;14.18;;;3.50;98.50;;;;;;4953656;28;20151;-73
2021/11/17 02:36:53;;;;;;;32.90;13.35;;;3.50;98.60;;;;;;4961748;28;20097;-75
2021/11/17 02:39:32;;;;;;;38.03;14.27;;;3.50;98.70;;;;;;4975970;28;20070;-76
2021/11/17 02:42:26;;;;;;;40.90;13.65;;;3.50;98.70;;;;;;4963223;28;20125;-76
2021/11/17 02:45:13;;;;;;;31.17;12.25;;;3.50;98.70;;;;;;4960545;28;20066;-75
2021/11/17 02:47:59;;;;;;;28.80;12.65;;;3.50;98.80;;;;;;4963767;28;20034;-75
2021/11/17 02:50:47;;;;;;;35.30;13.18;;;3.50;98.70;;;;;;4963725;28;20027;-75
2021/11/17 02:53:35;;;;;;;33.95;13.00;;;3.50;98.70;;;;;;4965469;28;20038;-74
2021/11/17 02:56:33;;;;;;;34.05;12.55;;;3.50;98.50;;;;;;4970187;28;20046;-75
2021/11/17 02:59:07;;;;;;;27.35;11.65;;;3.50;98.50;;;;;;4963562;28;20057;-75
2021/11/17 03:02:00;;;;;;;31.05;10.88;;;3.50;98.30;;;;;;4968870;28;20018;-74
2021/11/17 03:04:39;;;;;;;26.15;11.27;;;3.50;98.10;;;;;;4959784;28;20249;-75
2021/11/17 03:07:17;;;;;;;28.40;12.32;;;3.50;98.00;;;;;;4975346;28;20457;-75
2021/11/17 03:10:09;;;;;;;30.38;12.98;;;3.50;97.80;;;;;;4958545;28;20479;-75
2021/11/17 03:13:04;;;;;;;31.30;14.40;;;3.50;97.90;;;;;;4958372;28;20091;-74
2021/11/17 03:15:42;;;;;;;38.70;16.50;;;3.50;97.60;;;;;;4955393;28;20027;-75
2021/11/17 03:18:23;;;;;;;38.38;18.70;;;3.50;97.70;;;;;;4971662;28;20082;-75
2021/11/17 03:21:26;;;;;;;41.28;18.02;;;3.50;97.60;;;;;;4959728;28;20031;-74
2021/11/17 03:24:01;;;;;;;37.75;17.00;;;3.50;97.50;;;;;;4962686;28;20030;-75
2021/11/17 03:26:36;;;;;;;39.03;17.08;;;3.40;97.60;;;;;;4959592;28;20042;-75
2021/11/17 03:29:04;;;;;;;39.83;17.90;;;3.40;97.60;;;;;;4959175;28;20027;-75
2021/11/17 03:31:51;;;;;;;38.10;17.70;;;3.40;97.70;;;;;;4960118;28;20046;-75
2021/11/17 03:34:27;;;;;;;38.67;17.13;;;3.50;97.80;;;;;;4966520;28;20071;-75
2021/11/17 03:37:10;;;;;;;40.97;17.23;;;3.40;97.90;;;;;;4959102;28;20035;-75
2021/11/17 03:39:46;;;;;;;35.60;16.45;;;3.50;98.10;;;;;;4960371;28;20098;-75
2021/11/17 03:42:35;;;;;;;39.83;16.50;;;3.40;98.10;;;;;;4973642;28;20051;-74
2021/11/17 03:45:17;;;;;;;37.97;16.50;;;3.40;98.20;;;;;;4960393;28;20134;-75
2021/11/17 03:48:13;;;;;;;40.00;16.33;;;3.50;98.30;;;;;;4943788;28;20045;-75
2021/11/17 03:50:41;;;;;;;34.85;14.68;;;3.50;98.30;;;;;;4959973;28;20158;-75
2021/11/17 03:53:25;;;;;;;40.97;15.60;;;3.50;98.40;;;;;;4957220;28;20051;-75
2021/11/17 03:56:00;;;;;;;35.38;15.00;;;3.50;98.50;;;;;;4974203;28;20035;-75
2021/11/17 03:58:40;;;;;;;36.20;15.75;;;3.50;98.50;;;;;;4978266;28;20298;-75
2021/11/17 04:01:33;;;;;;;37.25;14.55;;;3.50;98.60;;;;;;4953747;28;20114;-75
2021/11/17 04:04:02;;;;;;;29.50;13.02;;;3.50;98.70;;;;;;4961009;28;20031;-74
2021/11/17 04:07:07;;;;;;;33.72;13.13;;;3.50;98.80;;;;;;4963486;28;20472;-74
2021/11/17 04:09:51;;;;;;;35.13;14.18;;;3.50;98.70;;;;;;4962690;28;20358;-75
2021/11/17 04:12:45;;;;;;;36.05;13.02;;;3.50;98.80;;;;;;4957086;28;20053;-75
2021/11/17 04:15:42;;;;;;;31.65;11.75;;;3.50;98.80;;;;;;4954020;28;20055;-75
2021/11/17 04:18:43;;;;;;;37.65;12.20;;;3.50;98.80;;;;;;4946885;28;20153;-75
2021/11/17 04:21:29;;;;;;;29.77;12.13;;;3.50;98.80;;;;;;4957227;28;20097;-75
2021/11/17 04:23:54;;;;;;;35.97;13.27;;;3.50;98.90;;;;;;4959775;28;20133;-75
2021/11/17 04:26:48;;;;;;;30.13;12.77;;;3.50;98.90;;;;;;4962129;28;20086;-75
2021/11/17 04:29:34;;;;;;;28.50;12.18;;;3.50;98.90;;;;;;4949085;28;20038;-75
2021/11/17 04:32:26;;;;;;;35.67;13.00;;;3.50;98.90;;;;;;4941564;28;20037;-75
2021/11/17 04:34:54;;;;;;;33.53;11.75;;;3.50;98.90;;;;;;4943843;28;20036;-75
2021/11/17 04:37:45;;;;;;;34.88;12.43;;;3.50;98.90;;;;;;4962388;28;20137;-75
2021/11/17 04:40:16;;;;;;;28.70;11.87;;;3.50;98.90;;;;;;4963917;28;20079;-74
2021/11/17 04:43:10;;;;;;;28.80;11.43;;;3.50;98.90;;;;;;4951957;28;20036;-75
2021/11/17 04:45:51;;;;;;;32.35;12.25;;;3.50;98.90;;;;;;4954565;28;20038;-75
2021/11/17 04:48:38;;;;;;;31.98;12.10;;;3.50;98.90;;;;;;4956130;28;20039;-75
2021/11/17 04:51:22;;;;;;;29.33;11.52;;;3.50;98.90;;;;;;4953848;28;20023;-75
2021/11/17 04:53:57;;;;;;;30.17;11.95;;;3.60;99.00;;;;;;4956634;28;20042;-75
2021/11/17 04:56:40;;;;;;;35.72;12.85;;;3.60;99.00;;;;;;4960507;28;20045;-75
2021/11/17 04:59:26;;;;;;;35.05;12.07;;;3.60;99.00;;;;;;4958888;28;20079;-75
2021/11/17 05:02:32;;;;;;;30.95;12.35;;;3.60;98.90;;;;;;4954571;28;20031;-75
2021/11/17 05:05:08;;;;;;;31.15;13.00;;;3.50;98.90;;;;;;4957511;28;20340;-75
2021/11/17 05:07:43;;;;;;;30.77;12.05;;;3.60;98.90;;;;;;4957706;28;20038;-75
2021/11/17 05:10:34;;;;;;;28.15;11.85;;;3.60;98.80;;;;;;4957367;28;20401;-75
2021/11/17 05:13:26;;;;;;;32.53;12.05;;;3.60;98.80;;;;;;4961336;28;20424;-75
2021/11/17 05:15:55;;;;;;;34.67;12.27;;;3.60;98.80;;;;;;4945491;28;20046;-75
2021/11/17 05:18:44;;;;;;;35.28;11.65;;;3.60;98.80;;;;;;4965620;28;20023;-75
2021/11/17 05:21:12;;;;;;;36.20;12.25;;;3.60;98.80;;;;;;4958149;28;20083;-76
2021/11/17 05:23:41;;;;;;;33.00;12.38;;;3.60;98.80;;;;;;4957940;28;20102;-76
2021/11/17 05:26:22;;;;;;;29.60;11.82;;;3.60;98.70;;;;;;4964211;28;20030;-76
2021/11/17 05:29:25;;;;;;;35.35;13.45;;;3.60;98.80;;;;;;4943825;28;20062;-77
2021/11/17 05:31:56;;;;;;;31.98;11.75;;;3.60;98.70;;;;;;4953749;28;20035;-76
2021/11/17 05:34:40;;;;;;;29.08;12.65;;;3.60;98.80;;;;;;4962122;28;20405;-77
2021/11/17 05:37:19;;;;;;;33.10;12.50;;;3.60;98.70;;;;;;4981304;28;20472;-77
2021/11/17 05:40:05;;;;;;;31.23;13.10;;;3.60;98.70;;;;;;4959588;28;20035;-76
2021/11/17 05:43:09;;;;;;;32.92;12.23;;;3.60;98.70;;;;;;4951889;28;20038;-76
2021/11/17 05:45:47;;;;;;;39.08;13.23;;;3.60;98.70;;;;;;4948286;28;20040;-77
2021/11/17 05:48:21;;;;;;;36.90;12.82;;;3.60;98.70;;;;;;4964947;28;20037;-76
2021/11/17 05:51:15;;;;;;;36.53;12.50;;;3.60;98.70;;;;;;4957557;28;20049;-77
2021/11/17 05:53:49;;;;;;;33.38;12.18;;;3.60;98.80;;;;;;4954268;28;20556;-76
2021/11/17 05:56:15;;;;;;;33.92;12.80;;;3.60;98.80;;;;;;4956516;28;20629;-76
2021/11/17 05:58:56;;;;;;;37.53;12.93;;;3.70;98.80;;;;;;4960676;28;20027;-76
2021/11/17 06:01:36;;;;;;;34.47;12.57;;;3.60;98.80;;;;;;4968618;28;20146;-76
2021/11/17 06:04:03;;;;;;;39.33;14.03;;;3.70;98.80;;;;;;4958741;28;20037;-76
2021/11/17 06:06:35;;;;;;;36.08;13.40;;;3.70;98.80;;;;;;4963876;28;20051;-77
2021/11/17 06:09:01;;;;;;;37.55;13.30;;;3.70;98.80;;;;;;4970675;28;20121;-76
2021/11/17 06:11:30;;;;;;;33.45;13.40;;;3.80;98.80;;;;;;4957143;28;20455;-76
2021/11/17 06:13:57;;;;;;;40.53;13.02;;;3.70;98.80;;;;;;4955300;28;20399;-76
2021/11/17 06:16:24;;;;;;;33.22;12.88;;;3.70;98.80;;;;;;4972069;28;20118;-77
2021/11/17 06:18:50;;;;;;;35.90;14.20;;;3.80;98.80;;;;;;4958792;28;20070;-76
2021/11/17 06:21:16;;;;;;;36.30;13.40;;;3.70;98.80;;;;;;4963432;28;20481;-76
2021/11/17 06:23:48;;;;;;;38.22;14.63;;;3.80;98.80;;;;;;4960295;28;20027;-76
2021/11/17 06:26:19;;;;;;;36.97;13.40;;;3.80;98.80;;;;;;4957819;28;20046;-76
2021/11/17 06:28:52;;;;;;;39.15;13.93;;;3.80;98.80;;;;;;4960777;28;20207;-76
2021/11/17 06:31:17;;;;;;;35.72;13.50;;;3.80;98.80;;;;;;4975156;28;20108;-76
2021/11/17 06:33:43;;;;;;;39.25;14.48;;;3.80;98.80;;;;;;4966803;28;20518;-74
2021/11/17 06:36:09;;;;;;;36.90;13.55;;;3.80;98.80;;;;;;4963079;28;20031;-75
2021/11/17 06:38:34;;;;;;;33.33;13.23;;;3.80;98.80;;;;;;4961960;28;20113;-75
2021/11/17 06:41:00;;;;;;;39.28;14.82;;;3.80;98.80;;;;;;4963074;28;20457;-75
2021/11/17 06:43:25;;;;;;;39.65;14.25;;;3.80;98.90;;;;;;4960828;28;20051;-75
2021/11/17 06:45:55;;;;;;;40.58;14.52;;;3.90;98.90;;;;;;4958982;28;20035;-75
2021/11/17 06:48:23;;;;;;;42.00;14.10;;;3.80;98.90;;;;;;4961352;28;20612;-75
2021/11/17 06:50:50;;;;;;;35.20;14.52;;;3.80;98.90;;;;;;4965282;28;20341;-75
2021/11/17 06:53:16;;;;;;;44.38;13.48;;;3.90;98.90;;;;;;4968389;28;20035;-73
2021/11/17 06:55:42;;;;;;;38.95;13.88;;;3.90;98.90;;;;;;4963998;28;20514;-75
2021/11/17 06:58:08;;;;;;;40.90;13.73;;;3.90;98.90;;;;;;4965342;28;20034;-75
2021/11/17 07:00:38;;;;;;;38.88;14.45;;;3.90;98.90;;;;;;4964491;28;20034;-74
2021/11/17 07:03:04;;;;;;;40.63;13.68;;;3.80;98.90;;;;;;4963930;28;20114;-75
2021/11/17 07:05:29;;;;;;;36.30;12.95;;;3.80;98.90;;;;;;4967803;28;20065;-75
2021/11/17 07:07:56;;;;;;;43.17;13.73;;;3.90;99.00;;;;;;4961594;28;20069;-74
2021/11/17 07:10:26;;;;;;;40.45;14.07;;;3.90;99.00;;;;;;4965219;28;20026;-75
2021/11/17 07:12:52;;;;;;;38.63;13.45;;;3.90;99.00;;;;;;4967769;28;20476;-74
2021/11/17 07:15:18;;;;;;;33.83;14.05;;;3.90;99.00;;;;;;4962694;28;20088;-74
2021/11/17 07:17:44;;;;;;;34.20;13.48;;;3.90;99.00;;;;;;4962105;28;20130;-75
2021/11/17 07:20:11;;;;;;;34.38;13.10;;;4.00;98.90;;;;;;4963323;28;20026;-75
2021/11/17 07:22:37;;;;;;;42.70;14.70;;;4.00;98.90;;;;;;4962618;28;20193;-75
2021/11/17 07:25:05;;;;;;;34.05;14.13;;;4.10;99.00;;;;;;4967762;28;20203;-75
2021/11/17 07:27:32;;;;;;;38.75;14.57;;;4.10;98.90;;;;;;4958271;28;20170;-75
2021/11/17 07:29:57;;;;;;;38.60;13.75;;;4.10;98.90;;;;;;4965031;28;20496;-75
2021/11/17 07:32:25;;;;;;;40.50;13.95;;;4.10;99.00;;;;;;4964634;28;20113;-75
2021/11/17 07:34:51;;;;;;;37.47;14.80;;;4.10;98.90;;;;;;4963052;28;20033;-76
2021/11/17 07:37:17;;;;;;;38.55;14.52;;;4.10;99.00;;;;;;4964832;28;20508;-76
2021/11/17 07:39:42;;;;;;;38.97;14.27;;;4.10;98.90;;;;;;4963288;28;20130;-75
2021/11/17 07:42:08;;;;;;;34.55;14.10;;;4.20;98.90;;;;;;4967735;28;20034;-76
2021/11/17 07:44:33;;;;;;;36.45;14.20;;;4.20;98.90;;;;;;4956568;28;20033;-77
2021/11/17 07:46:59;;;;;;;36.17;14.27;;;4.20;98.90;;;;;;4966921;28;20404;-75
2021/11/17 07:49:26;;;;;;;40.58;14.73;;;4.30;98.90;;;;;;4964751;28;20037;-76
2021/11/17 07:51:53;;;;;;;38.63;15.70;;;4.20;98.90;;;;;;4967986;28;20086;-76
2021/11/17 07:54:19;;;;;;;38.65;14.63;;;4.20;98.90;;;;;;4966903;28;20030;-77
2021/11/17 07:56:46;;;;;;;39.42;15.07;;;4.30;99.00;;;;;;4965014;28;20031;-77
2021/11/17 07:59:16;;;;;;;35.92;13.98;;;4.30;98.90;;;;;;4959893;28;20263;-77
2021/11/17 08:01:45;;;;;;;33.58;14.30;;;4.20;99.00;;;;;;4961867;28;20023;-78
2021/11/17 08:04:14;;;;;;;43.83;15.00;;;4.30;99.00;;;;;;4960597;28;20023;-77
2021/11/17 08:06:40;;;;;;;38.90;15.40;;;4.30;99.00;;;;;;4962185;28;20039;-76
2021/11/17 08:09:07;;;;;;;42.78;15.55;;;4.30;99.00;;;;;;4961907;28;20101;-76
2021/11/17 08:11:33;;;;;;;38.33;15.07;;;4.40;99.10;;;;;;4957371;28;20177;-77
2021/11/17 08:13:59;;;;;;;42.60;15.13;;;4.40;99.10;;;;;;4965747;28;20049;-77
2021/11/17 08:16:25;;;;;;;38.97;14.95;;;4.40;99.10;;;;;;4963456;28;20122;-77
2021/11/17 08:18:50;;;;;;;51.85;16.52;;;4.50;99.10;;;;;;4956597;28;20170;-77
2021/11/17 08:21:16;;;;;;;37.15;15.70;;;4.50;99.10;;;;;;4961601;28;20110;-77
2021/11/17 08:23:42;;;;;;;40.60;15.95;;;4.50;99.00;;;;;;4961191;28;20066;-77
2021/11/17 08:26:09;;;;;;;43.97;16.30;;;4.50;99.10;;;;;;4964840;28;20082;-77
2021/11/17 08:28:35;;;;;;;42.03;16.98;;;4.60;99.10;;;;;;4967633;28;20273;-75
2021/11/17 08:31:00;;;;;;;40.70;16.85;;;4.50;99.10;;;;;;4964781;28;20443;-76
2021/11/17 08:33:26;;;;;;;46.90;15.38;;;4.60;99.20;;;;;;4961518;28;20097;-77
2021/11/17 08:35:51;;;;;;;44.80;16.65;;;4.60;99.10;;;;;;4962242;28;20114;-76
2021/11/17 08:38:22;;;;;;;41.10;16.50;;;4.60;99.10;;;;;;4956549;28;20027;-76
2021/11/17 08:40:53;;;;;;;42.08;17.33;;;4.60;99.00;;;;;;4957097;28;20030;-76
2021/11/17 08:43:19;;;;;;;37.80;15.02;;;4.70;99.00;;;;;;4962489;28;20095;-77
2021/11/17 08:45:45;;;;;;;40.45;16.02;;;4.70;99.10;;;;;;4959547;28;20031;-76
2021/11/17 08:48:12;;;;;;;45.20;17.35;;;4.70;98.90;;;;;;4957322;28;20520;-76
2021/11/17 08:50:38;;;;;;;44.35;16.13;;;4.70;99.00;;;;;;4965696;28;20027;-75
2021/11/17 08:53:07;;;;;;;41.05;17.00;;;4.70;99.00;;;;;;4963625;28;20052;-76
2021/11/17 08:55:33;;;;;;;40.38;16.13;;;4.80;99.00;;;;;;4960833;28;20471;-77
2021/11/17 08:58:01;;;;;;;38.10;15.65;;;4.80;98.90;;;;;;4966531;28;20031;-76
2021/11/17 09:00:28;;;;;;;41.53;16.65;;;4.80;99.00;;;;;;4959285;28;20031;-77
2021/11/17 09:02:56;;;;;;;39.85;15.27;;;4.80;99.00;;;;;;4964959;28;20113;-77
2021/11/17 09:05:26;;;;;;;42.45;16.30;;;4.90;99.00;;;;;;4960964;28;20423;-78
2021/11/17 09:07:52;;;;;;;42.60;16.05;;;4.90;99.00;;;;;;4962763;28;20084;-77
2021/11/17 09:10:27;;;;;;;42.75;16.25;;;4.90;99.00;;;;;;4965210;28;20051;-77
2021/11/17 09:12:53;;;;;;;43.95;15.40;;;4.90;99.10;;;;;;4958119;28;20408;-77
2021/11/17 09:15:22;;;;;;;41.28;15.38;;;4.90;99.10;;;;;;4962595;28;20023;-77
2021/11/17 09:17:48;;;;;;;45.60;15.52;;;4.90;99.20;;;;;;4961341;28;20439;-77
2021/11/17 09:20:15;;;;;;;40.70;16.17;;;5.00;99.20;;;;;;4962365;28;20116;-77
2021/11/17 09:22:42;;;;;;;47.42;16.60;;;5.00;99.20;;;;;;4962824;28;20023;-77
2021/11/17 09:25:11;;;;;;;43.17;16.25;;;5.10;99.30;;;;;;4960201;28;20104;-77
2021/11/17 09:27:38;;;;;;;44.13;16.70;;;5.10;99.20;;;;;;4974322;28;20085;-76
2021/11/17 09:30:06;;;;;;;42.85;15.60;;;5.10;99.20;;;;;;4960918;28;20448;-77
2021/11/17 09:32:33;;;;;;;40.85;15.45;;;5.10;99.10;;;;;;4969300;28;20034;-77
2021/11/17 09:35:03;;;;;;;43.22;14.82;;;5.10;99.20;;;;;;4962645;28;20038;-77
2021/11/17 09:37:28;;;;;;;42.53;15.67;;;5.10;99.20;;;;;;4958450;28;20515;-77
2021/11/17 09:39:55;;;;;;;45.58;16.92;;;5.10;99.20;;;;;;4954882;28;20030;-77
2021/11/17 09:42:21;;;;;;;42.97;16.50;;;5.10;99.20;;;;;;4961547;28;20027;-75
2021/11/17 09:44:47;;;;;;;44.58;16.90;;;5.10;99.30;;;;;;4958064;28;20469;-75
2021/11/17 09:47:20;;;;;;;48.22;17.98;;;5.10;99.30;;;;;;4959898;28;20046;-75
2021/11/17 09:49:57;;;;;;;43.15;16.60;;;5.10;99.30;;;;;;4956725;28;20145;-75
2021/11/17 09:52:30;;;;;;;43.17;16.27;;;5.10;99.30;;;;;;4959302;28;20165;-75
2021/11/17 09:55:05;;;;;;;49.40;16.98;;;5.10;99.30;;;;;;4960600;28;20026;-75
2021/11/17 09:57:34;;;;;;;42.17;16.83;;;5.10;99.40;;;;;;4966065;28;20397;-75
2021/11/17 10:00:10;;;;;;;47.78;16.67;;;5.20;99.50;;;;;;4958725;28;20085;-75
2021/11/17 10:02:59;;;;;;;44.33;15.90;;;5.20;99.50;;;;;;4970134;28;20412;-74
2021/11/17 10:06:36;;;;;;;35.70;14.57;;;5.20;99.40;;;;;;4964731;28;20094;-75
2021/11/17 10:14:39;;;;;;;40.17;15.35;;;5.30;99.60;;;;;;4958113;28;20035;-75
2021/11/17 10:17:56;;;;;;;39.47;15.40;;;5.40;99.60;;;;;;4966931;28;20053;-75
2021/11/17 10:20:38;;;;;;;37.92;16.08;;;5.40;99.60;;;;;;4927237;28;20088;-75
2021/11/17 10:23:08;;;;;;;36.33;15.30;;;5.40;99.60;;;;;;4959129;28;20053;-75
2021/11/17 10:25:43;;;;;;;33.90;13.77;;;5.40;99.60;;;;;;4960536;28;20058;-74
2021/11/17 10:28:09;;;;;;;40.53;15.43;;;5.40;99.70;;;;;;4965731;28;20050;-74
2021/11/17 10:30:48;;;;;;;38.08;14.32;;;5.40;99.70;;;;;;4971353;28;20073;-73
2021/11/17 10:33:22;;;;;;;33.72;13.90;;;5.50;99.70;;;;;;4974047;28;20051;-74
2021/11/17 10:36:12;;;;;;;36.05;14.07;;;5.50;99.70;;;;;;4966483;28;20035;-73
2021/11/17 10:38:42;;;;;;;31.63;13.68;;;5.50;99.70;;;;;;4961078;28;20395;-74
2021/11/17 10:41:47;;;;;;;36.42;14.70;;;5.50;99.60;;;;;;4960238;28;20262;-74
2021/11/17 10:44:13;;;;;;;39.53;14.60;;;5.50;99.60;;;;;;4958355;28;20042;-74
2021/11/17 10:46:53;;;;;;;38.50;15.73;;;5.50;99.60;;;;;;4958402;28;20018;-74
2021/11/17 10:49:25;;;;;;;34.90;15.07;;;5.60;99.70;;;;;;4960467;28;20015;-75
2021/11/17 10:52:01;;;;;;;40.38;15.25;;;5.60;99.70;;;;;;4961626;28;20452;-75
2021/11/17 10:54:29;;;;;;;44.42;16.30;;;5.60;99.70;;;;;;4967029;28;20408;-74
2021/11/17 10:56:59;;;;;;;50.80;17.30;;;5.60;99.70;;;;;;4957444;28;20433;-75
2021/11/17 10:59:25;;;;;;;44.67;17.20;;;5.70;99.70;;;;;;4965816;28;20090;-74
2021/11/17 11:01:52;;;;;;;43.25;16.42;;;5.70;99.70;;;;;;4959110;28;20432;-75
2021/11/17 11:04:59;;;;;;;41.60;17.02;;;5.70;99.60;;;;;;4963765;28;20575;-75
2021/11/17 11:07:49;;;;;;;45.75;17.20;;;5.80;99.70;;;;;;4958821;28;20119;-74
2021/11/17 11:10:20;;;;;;;43.33;18.17;;;5.80;99.70;;;;;;4960024;28;20081;-75
2021/11/17 11:12:48;;;;;;;52.08;19.45;;;5.80;99.70;;;;;;4959992;28;20045;-75
2021/11/17 11:15:29;;;;;;;55.05;20.13;;;5.80;99.70;;;;;;4966236;28;20070;-75
2021/11/17 11:18:04;;;;;;;;;;;5.90;99.70;;;;;;4968578;28;20045;-75
2021/11/17 11:20:48;;;;;;;51.92;19.38;;;5.90;99.70;;;;;;4973389;28;19918;-75
2021/11/17 11:23:40;;;;;;;53.92;20.92;;;5.90;99.70;;;;;;4978260;28;20039;-75
2021/11/17 11:26:26;;;;;;;59.63;22.67;;;5.90;99.80;;;;;;4966324;28;20023;-75
2021/11/17 11:29:00;;;;;;;57.65;23.02;;;5.90;99.80;;;;;;4974807;28;20127;-75
2021/11/17 11:31:55;;;;;;;70.65;24.02;;;6.00;99.80;;;;;;4956422;28;20171;-75
2021/11/17 11:34:48;;;;;;;68.10;24.20;;;6.00;99.80;;;;;;4960390;28;20046;-75
2021/11/17 11:37:33;;;;;;;67.78;23.30;;;6.00;99.90;;;;;;4965567;28;20102;-75
2021/11/17 11:40:01;;;;;;;74.25;26.55;;;6.10;99.90;;;;;;4961474;28;20026;-74
2021/11/17 11:42:59;;;;;;;71.32;24.98;;;6.10;99.90;;;;;;4962811;28;20098;-75
2021/11/17 11:45:27;;;;;;;65.78;24.10;;;6.10;99.90;;;;;;4961143;28;20062;-75
2021/11/17 11:48:09;;;;;;;68.70;26.00;;;6.20;99.80;;;;;;4963589;28;20473;-74
2021/11/17 11:50:37;;;;;;;68.57;25.23;;;6.20;99.80;;;;;;4959231;28;20045;-75
2021/11/17 11:53:18;;;;;;;75.60;26.13;;;6.30;99.80;;;;;;4963200;28;20186;-75
2021/11/17 11:55:50;;;;;;;76.88;27.20;;;6.30;99.90;;;;;;4966361;28;20046;-75
2021/11/17 11:58:23;;;;;;;75.30;25.48;;;6.40;99.90;;;;;;4975339;28;20117;-75
2021/11/17 12:01:03;;;;;;;65.78;24.67;;;6.40;99.90;;;;;;4953086;28;20106;-75
2021/11/17 12:03:32;;;;;;;75.30;25.70;;;6.50;99.80;;;;;;4957176;28;20127;-75
2021/11/17 12:06:10;;;;;;;71.68;26.20;;;6.60;99.80;;;;;;4957331;28;20057;-75
2021/11/17 12:08:48;;;;;;;67.93;25.40;;;6.60;99.80;;;;;;4964247;28;20393;-73
2021/11/17 12:11:21;;;;;;;71.82;25.92;;;6.70;99.70;;;;;;4957135;28;20026;-75
2021/11/17 12:14:06;;;;;;;77.50;27.13;;;6.70;99.70;;;;;;4958408;28;20122;-75
2021/11/17 12:16:40;;;;;;;64.40;25.67;;;6.80;99.70;;;;;;4962206;28;20496;-75
2021/11/17 12:19:11;;;;;;;63.05;26.25;;;6.80;99.60;;;;;;4966089;28;20440;-75
2021/11/17 12:21:40;;;;;;;66.97;27.27;;;6.80;99.60;;;;;;4963535;28;20113;-76
2021/11/17 12:24:14;;;;;;;57.47;26.65;;;6.80;99.50;;;;;;4963900;28;20027;-75
2021/11/17 12:26:42;;;;;;;61.00;25.10;;;6.90;99.50;;;;;;4962540;28;20142;-75
2021/11/17 12:29:24;;;;;;;62.47;25.48;;;6.90;99.40;;;;;;4972936;28;20019;-75
2021/11/17 12:32:14;;;;;;;60.85;25.35;;;6.90;99.40;;;;;;4963438;28;20053;-75
2021/11/17 12:34:57;;;;;;;56.28;25.38;;;6.90;99.40;;;;;;4965835;28;20433;-75
2021/11/17 12:37:35;;;;;;;60.75;26.27;;;7.00;99.40;;;;;;4957440;28;20457;-75
2021/11/17 12:40:16;;;;;;;66.38;26.17;;;7.00;99.40;;;;;;4962379;28;20081;-74
2021/11/17 12:42:55;;;;;;;63.92;26.20;;;7.10;99.40;;;;;;4961886;28;20075;-75
2021/11/17 12:45:27;;;;;;;66.45;28.25;;;7.00;99.40;;;;;;4962589;28;20037;-74
2021/11/17 12:47:55;;;;;;;63.45;27.77;;;7.00;99.30;;;;;;4964060;28;20165;-75
2021/11/17 12:50:42;;;;;;;68.70;29.65;;;7.00;99.40;;;;;;4959560;28;20516;-75
2021/11/17 12:53:34;;;;;;;59.38;27.60;;;7.00;99.30;;;;;;4964356;28;20031;-75
2021/11/17 12:56:10;;;;;;;62.33;27.63;;;7.00;99.30;;;;;;4963146;28;20526;-75
2021/11/17 12:58:42;;;;;;;66.30;27.85;;;7.00;99.30;;;;;;4961220;28;20042;-75
2021/11/17 13:01:11;;;;;;;70.45;27.75;;;7.00;99.40;;;;;;4962717;28;20085;-75
2021/11/17 13:03:49;;;;;;;59.50;27.65;;;7.00;99.40;;;;;;4972515;28;20030;-76
2021/11/17 13:06:28;;;;;;;61.85;28.50;;;7.00;99.30;;;;;;4958201;28;20031;-76
2021/11/17 13:09:20;;;;;;;72.20;28.95;;;7.10;99.30;;;;;;4960913;28;20121;-75
2021/11/17 13:12:01;;;;;;;68.85;28.98;;;7.10;99.30;;;;;;4963693;28;20023;-75
2021/11/17 13:14:44;;;;;;;66.15;30.48;;;7.10;99.30;;;;;;4958642;28;20345;-75
2021/11/17 13:17:21;;;;;;;62.05;27.80;;;7.10;99.30;;;;;;4958064;28;20031;-75
2021/11/17 13:19:51;;;;;;;68.72;29.48;;;7.10;99.30;;;;;;4963543;28;20039;-75
2021/11/17 13:22:31;;;;;;;69.45;30.13;;;7.20;99.20;;;;;;4959746;28;20106;-75
2021/11/17 13:25:26;;;;;;;72.97;30.45;;;7.20;99.20;;;;;;4963474;28;20027;-75
2021/11/17 13:27:53;;;;;;;61.30;28.67;;;7.20;99.20;;;;;;4961563;28;20023;-74
2021/11/17 13:30:30;;;;;;;71.18;31.60;;;7.30;99.20;;;;;;4957957;28;20022;-74
2021/11/17 13:32:58;;;;;;;72.15;30.52;;;7.30;99.20;;;;;;4961687;28;20022;-75
2021/11/17 13:35:34;;;;;;;70.50;30.27;;;7.30;99.20;;;;;;4963660;28;20026;-75
2021/11/17 13:38:20;;;;;;;69.22;29.70;;;7.40;99.10;;;;;;4962670;28;20240;-75
2021/11/17 13:40:58;;;;;;;66.15;28.25;;;7.40;99.00;;;;;;4959741;28;20101;-75
2021/11/17 13:43:26;;;;;;;60.85;27.55;;;7.40;98.90;;;;;;4962598;28;20250;-75
2021/11/17 13:45:55;;;;;;;57.60;29.45;;;7.40;98.80;;;;;;4957815;28;20037;-75
2021/11/17 13:48:26;;;;;;;65.03;30.10;;;7.50;98.80;;;;;;4961729;28;20030;-75
2021/11/17 13:50:52;;;;;;;60.58;28.13;;;7.50;98.70;;;;;;4960637;28;20039;-75
2021/11/17 13:53:20;;;;;;;61.88;28.67;;;7.50;98.70;;;;;;4977288;23;20035;-67
2021/11/17 13:56:21;;;;;;;58.60;27.65;;;7.40;98.70;;;;;;4925217;29;20036;-67
2021/11/17 13:58:49;;;;;;;66.43;28.65;;;7.50;98.70;;;;;;4917247;29;20067;-67
2021/11/17 14:01:15;;;;;;;65.13;28.67;;;7.40;98.70;;;;;;4919637;29;20058;-67
2021/11/17 14:03:41;;;;;;;64.07;28.90;;;7.50;98.70;;;;;;4922077;29;20031;-67
2021/11/17 14:06:11;;;;;;;67.38;28.27;;;7.40;98.60;;;;;;4917041;29;20020;-67
2021/11/17 14:08:37;;;;;;;55.53;28.27;;;7.50;98.50;;;;;;4924031;29;20484;-67
2021/11/17 14:11:04;;;;;;;60.42;29.23;;;7.50;98.50;;;;;;4903245;29;20056;-67
2021/11/17 14:13:30;;;;;;;57.90;28.30;;;7.50;98.40;;;;;;4912474;29;20031;-67
2021/11/17 14:15:56;;;;;;;53.60;26.92;;;7.50;98.50;;;;;;4893852;29;20575;-67
2021/11/17 14:18:22;;;;;;;63.75;29.13;;;7.50;98.50;;;;;;4904242;29;20051;-67
2021/11/17 14:20:48;;;;;;;50.15;26.98;;;7.50;98.50;;;;;;4916883;29;20095;-67
2021/11/17 14:23:15;;;;;;;57.17;28.17;;;7.50;98.50;;;;;;4920605;29;20024;-67
2021/11/17 14:25:42;;;;;;;63.10;28.52;;;7.50;98.60;;;;;;4919131;29;20040;-67
2021/11/17 14:28:17;;;;;;;60.08;28.20;;;7.50;98.60;;;;;;4913730;29;20118;-67
2021/11/17 14:30:46;;;;;;;52.33;26.83;;;7.50;98.60;;;;;;4921611;29;20023;-66
2021/11/17 14:33:16;;;;;;;59.20;27.83;;;7.50;98.60;;;;;;4925338;29;20016;-67
2021/11/17 14:35:41;;;;;;;55.72;27.17;;;7.50;98.60;;;;;;4922400;29;20075;-67
2021/11/17 14:38:10;;;;;;;52.22;27.17;;;7.60;98.50;;;;;;4925820;29;20061;-67
2021/11/17 14:40:36;;;;;;;59.58;25.58;;;7.60;98.50;;;;;;4918284;29;20056;-67
2021/11/17 14:43:01;;;;;;;49.47;24.73;;;7.60;98.40;;;;;;4919405;29;20111;-67
2021/11/17 14:45:29;;;;;;;47.38;24.30;;;7.60;98.40;;;;;;4926328;29;20094;-67
2021/11/17 14:47:55;;;;;;;50.65;24.30;;;7.60;98.40;;;;;;4925911;29;20040;-67
2021/11/17 14:50:21;;;;;;;44.45;23.67;;;7.70;98.40;;;;;;4924708;29;20024;-67
2021/11/17 14:52:48;;;;;;;42.78;24.02;;;7.70;98.40;;;;;;4918788;29;20051;-67
2021/11/17 14:55:19;;;;;;;51.15;24.23;;;7.70;98.40;;;;;;4918833;29;20035;-67
2021/11/17 14:57:45;;;;;;;;;;;7.60;98.40;;;;;;4926940;29;20031;-67
2021/11/17 15:00:16;;;;;;;41.10;19.17;;;7.60;98.40;;;;;;4918656;29;19958;-67
2021/11/17 15:02:42;;;;;;;;;;;7.60;98.30;;;;;;4928298;28;20496;-67
2021/11/17 15:05:08;;;;;;;39.15;18.05;;;7.70;98.00;;;;;;4920878;29;19921;-67
2021/11/17 15:07:35;;;;;;;39.38;21.20;;;7.70;97.90;;;;;;4912862;29;20385;-67
2021/11/17 15:10:02;;;;;;;47.67;21.20;;;7.70;97.90;;;;;;4922819;28;20110;-67
2021/11/17 15:12:32;;;;;;;42.00;20.52;;;7.70;97.90;;;;;;4915742;29;20031;-67
2021/11/17 15:15:00;;;;;;;38.47;19.70;;;7.60;98.00;;;;;;4917672;29;20032;-67
2021/11/17 15:17:26;;;;;;;42.85;19.17;;;7.50;98.00;;;;;;4918041;29;20362;-67
2021/11/17 15:19:52;;;;;;;46.70;20.25;;;7.50;98.10;;;;;;4921735;29;20035;-67
2021/11/17 15:22:19;;;;;;;45.90;18.92;;;7.40;98.20;;;;;;4917227;29;20032;-67
2021/11/17 15:24:44;;;;;;;44.35;21.45;;;7.40;98.30;;;;;;4921559;29;20353;-67
2021/11/17 15:27:25;;;;;;;43.22;20.65;;;7.30;98.30;;;;;;4916069;29;20043;-67
2021/11/17 15:29:52;;;;;;;37.22;20.13;;;7.40;98.40;;;;;;4921649;29;20024;-67
2021/11/17 15:32:19;;;;;;;41.95;19.55;;;7.40;98.50;;;;;;4916231;29;20110;-67
2021/11/17 15:34:46;;;;;;;44.17;21.45;;;7.40;98.50;;;;;;4894787;28;20032;-67
2021/11/17 15:37:12;;;;;;;45.95;21.20;;;7.40;98.40;;;;;;4917405;28;20099;-67
2021/11/17 15:39:37;;;;;;;45.50;20.35;;;7.30;98.50;;;;;;4919891;29;20023;-67
2021/11/17 15:42:04;;;;;;;42.28;20.33;;;7.20;98.50;;;;;;4919926;29;20207;-67
2021/11/17 15:44:30;;;;;;;44.65;19.05;;;7.10;98.60;;;;;;4921676;29;20192;-67
2021/11/17 15:47:02;;;;;;;47.05;21.02;;;7.10;98.70;;;;;;4908994;29;20047;-67
2021/11/17 15:49:28;;;;;;;44.10;18.98;;;7.10;98.70;;;;;;4916930;29;20492;-67